createdAt,value
2022-12-15T06:56:03.572Z,99341.47
2022-12-15T06:58:32.840Z,99344.47
2022-12-15T07:01:08.087Z,99342.78
2022-12-15T07:03:36.747Z,99338.63
2022-12-15T07:06:07.244Z,99340.56
2022-12-15T07:08:41.175Z,99354.13
2022-12-15T07:11:13.477Z,99359.81
2022-12-15T07:13:42.918Z,99354.53
2022-12-15T07:16:12.549Z,99355.25
2022-12-15T07:18:40.790Z,99360.88
2022-12-15T07:21:10.854Z,99372.91
2022-12-15T07:23:54.003Z,99381.91
2022-12-15T07:26:24.796Z,99381.34
2022-12-15T07:28:52.886Z,99378.03
2022-12-15T07:31:20.719Z,99376.63
2022-12-15T07:33:49.335Z,99390.75
2022-12-15T07:36:17.191Z,99380.63
2022-12-15T07:38:50.799Z,99368.09
2022-12-15T07:41:20.048Z,99373.47
2022-12-15T07:43:49.757Z,99369.31
2022-12-15T07:46:17.930Z,99366.50
2022-12-15T07:48:50.297Z,99375.25
2022-12-15T07:51:20.915Z,99376.63
2022-12-15T07:53:51.075Z,99380.59
2022-12-15T07:56:20.411Z,99396.75
2022-12-15T07:58:49.671Z,99388.84
2022-12-15T08:01:17.972Z,99388.66
2022-12-15T08:03:46.254Z,99400.47
2022-12-15T08:06:16.342Z,99403.22
2022-12-15T08:08:50.816Z,99409.38
2022-12-15T08:11:21.006Z,99411.22
2022-12-15T08:14:10.574Z,99402.97
2022-12-15T08:16:38.521Z,99405.78
2022-12-15T08:19:07.737Z,99397.69
2022-12-15T08:21:36.038Z,99390.66
2022-12-15T08:24:04.242Z,99397.53
2022-12-15T08:26:32.343Z,99400.03
2022-12-15T08:31:54.750Z,99400.06
2022-12-15T08:34:22.515Z,99402.78
2022-12-15T08:36:50.175Z,99400.41
2022-12-15T08:39:18.065Z,99413.00
2022-12-15T08:41:46.171Z,99410.66
2022-12-15T08:44:16.711Z,99395.50
2022-12-15T08:46:44.351Z,99401.28
2022-12-15T08:49:15.345Z,99408.75
2022-12-15T08:51:47.367Z,99417.44
2022-12-15T08:54:19.106Z,99418.84
2022-12-15T08:56:47.368Z,99423.22
2022-12-15T08:59:32.984Z,99418.28
2022-12-15T09:02:03.293Z,99422.94
2022-12-15T09:04:31.160Z,99421.91
2022-12-15T09:06:59.180Z,99422.53
2022-12-15T09:09:26.751Z,99427.66
2022-12-15T09:11:55.651Z,99429.09
2022-12-15T09:14:29.083Z,99431.72
2022-12-15T09:16:59.401Z,99431.97
2022-12-15T09:19:27.939Z,99436.38
2022-12-15T09:21:55.686Z,99439.06
2022-12-15T09:24:32.501Z,99445.50
2022-12-15T09:27:05.099Z,99453.22
2022-12-15T09:29:34.997Z,99447.13
2022-12-15T09:32:06.498Z,99458.34
2022-12-15T09:34:36.945Z,99458.84
2022-12-15T09:37:04.626Z,99462.91
2022-12-15T09:39:32.440Z,99470.94
2022-12-15T09:42:02.524Z,99476.78
2022-12-15T09:44:33.062Z,99478.34
2022-12-15T09:47:12.043Z,99480.97
2022-12-15T09:49:55.761Z,99486.22
2022-12-15T09:52:26.856Z,99478.88
2022-12-15T09:54:56.376Z,99480.22
2022-12-15T09:57:32.901Z,99473.97
2022-12-15T10:00:22.176Z,99472.69
2022-12-15T10:03:18.383Z,99463.81
2022-12-15T10:06:16.119Z,99469.41
2022-12-15T10:08:57.676Z,99466.09
2022-12-15T10:11:41.353Z,99458.63
2022-12-15T10:14:22.649Z,99468.72
2022-12-15T10:17:01.055Z,99473.16
2022-12-15T10:19:50.096Z,99476.94
2022-12-15T10:22:26.200Z,99477.00
2022-12-15T10:27:59.807Z,99480.16
2022-12-15T10:30:27.757Z,99495.09
2022-12-15T10:33:02.731Z,99487.28
2022-12-15T10:35:33.969Z,99488.75
2022-12-15T10:38:03.859Z,99476.28
2022-12-15T10:40:53.051Z,99473.97
2022-12-15T10:43:35.436Z,99466.91
2022-12-15T10:46:08.964Z,99466.84
2022-12-15T10:48:38.041Z,99454.19
2022-12-15T10:51:22.708Z,99462.38
2022-12-15T10:53:53.894Z,99459.31
2022-12-15T10:56:32.809Z,99455.38
2022-12-15T10:59:04.977Z,99467.06
2022-12-15T11:01:35.802Z,99462.44
2022-12-15T11:04:03.933Z,99462.69
2022-12-15T11:06:36.750Z,99459.41
2022-12-15T11:09:34.349Z,99454.16
2022-12-15T11:12:20.492Z,99444.38
2022-12-15T11:14:51.135Z,99444.13
2022-12-15T11:17:20.545Z,99447.97
2022-12-15T11:20:01.950Z,99427.84
2022-12-15T11:22:41.161Z,99428.88
2022-12-15T11:25:21.166Z,99417.50
2022-12-15T11:27:51.414Z,99432.31
2022-12-15T11:30:22.147Z,99427.91
2022-12-15T11:32:53.499Z,99441.03
2022-12-15T11:35:39.017Z,99423.31
2022-12-15T11:38:19.968Z,99426.44
2022-12-15T11:40:47.613Z,99420.72
2022-12-15T11:43:52.876Z,99412.84
2022-12-15T11:46:23.152Z,99406.47
2022-12-15T11:49:13.899Z,99401.22
2022-12-15T11:51:45.247Z,99394.81
2022-12-15T11:54:24.640Z,99392.75
2022-12-15T11:57:00.609Z,99389.00
2022-12-15T11:59:39.203Z,99386.25
2022-12-15T12:02:39.864Z,99390.00
2022-12-15T12:05:28.072Z,99393.81
2022-12-15T12:08:06.591Z,99394.16
2022-12-15T12:10:45.636Z,99386.25
2022-12-15T12:13:25.480Z,99387.78
2022-12-15T12:16:04.225Z,99375.69
2022-12-15T12:18:37.371Z,99376.97
2022-12-15T12:21:10.172Z,99376.00
2022-12-15T12:23:43.554Z,99380.81
2022-12-15T12:26:20.045Z,99368.22
2022-12-15T12:28:54.438Z,99374.72
2022-12-15T12:31:45.147Z,99367.97
2022-12-15T12:34:19.052Z,99368.81
2022-12-15T12:36:49.873Z,99371.56
2022-12-15T12:39:21.713Z,99357.16
2022-12-15T12:41:59.176Z,99346.47
2022-12-15T12:44:32.512Z,99330.72
2022-12-15T12:47:10.033Z,99325.06
2022-12-15T12:49:44.979Z,99321.13
2022-12-15T12:52:21.182Z,99320.44
2022-12-15T12:54:59.228Z,99312.72
2022-12-15T12:57:39.458Z,99307.72
2022-12-15T13:00:23.438Z,99303.31
2022-12-15T13:03:20.090Z,99302.38
2022-12-15T13:05:50.851Z,99292.66
2022-12-15T13:08:51.255Z,99292.38
2022-12-15T13:12:14.849Z,99292.25
2022-12-15T13:14:51.715Z,99282.28
2022-12-15T13:17:31.423Z,99285.19
2022-12-15T13:20:23.354Z,99283.78
2022-12-15T13:22:52.112Z,99283.00
2022-12-15T13:25:39.101Z,99279.66
2022-12-15T13:28:20.829Z,99289.31
2022-12-15T13:31:41.788Z,99281.84
2022-12-15T13:34:26.496Z,99274.50
2022-12-15T13:36:59.361Z,99282.63
2022-12-15T13:39:58.226Z,99280.53
2022-12-15T13:42:45.633Z,99263.63
2022-12-15T13:45:45.283Z,99258.91
2022-12-15T13:48:36.009Z,99248.78
2022-12-15T13:51:25.568Z,99259.31
2022-12-15T13:53:58.508Z,99250.34
2022-12-15T13:56:50.772Z,99240.78
2022-12-15T13:59:27.236Z,99232.59
2022-12-15T14:01:55.524Z,99233.41
2022-12-15T14:04:23.464Z,99241.69
2022-12-15T14:06:57.061Z,99245.75
2022-12-15T14:09:29.779Z,99241.16
2022-12-15T14:11:58.764Z,99240.59
2022-12-15T14:14:32.297Z,99248.78
2022-12-15T14:17:02.269Z,99235.91
2022-12-15T14:19:39.836Z,99237.16
2022-12-15T14:22:27.166Z,99229.16
2022-12-15T14:25:02.398Z,99225.34
2022-12-15T14:27:32.575Z,99231.69
2022-12-15T14:30:25.481Z,99242.75
2022-12-15T14:32:56.922Z,99238.63
2022-12-15T14:35:30.084Z,99249.72
2022-12-15T14:38:02.383Z,99248.81
2022-12-15T14:40:31.290Z,99258.38
2022-12-15T14:43:00.495Z,99269.81
2022-12-15T14:45:31.764Z,99277.56
2022-12-15T14:48:39.550Z,99277.34
2022-12-15T14:50:52.021Z,99274.84
2022-12-15T14:53:24.517Z,99280.31
2022-12-15T14:55:54.851Z,99289.34
2022-12-15T14:58:32.303Z,99284.19
2022-12-15T15:01:03.038Z,99293.44
2022-12-15T15:03:06.626Z,99482.84
2022-12-15T15:03:37.107Z,99294.28
2022-12-15T15:06:08.012Z,99287.06
2022-12-15T15:08:46.653Z,99281.31
2022-12-15T15:11:25.460Z,99283.09
2022-12-15T15:13:56.634Z,99288.44
2022-12-15T15:16:24.708Z,99284.09
2022-12-15T15:18:54.516Z,99283.72
2022-12-15T15:21:24.880Z,99281.84
2022-12-15T15:24:01.380Z,99281.88
2022-12-15T15:26:31.233Z,99280.78
2022-12-15T15:28:59.450Z,99272.19
2022-12-15T15:31:40.762Z,99270.72
2022-12-15T15:34:09.683Z,99270.69
2022-12-15T15:36:41.635Z,99275.00
2022-12-15T15:39:16.854Z,99275.91
2022-12-15T15:41:44.937Z,99279.16
2022-12-15T15:44:14.821Z,99284.56
2022-12-15T15:46:47.800Z,99275.28
2022-12-15T15:49:19.185Z,99289.31
2022-12-15T15:51:47.020Z,99292.50
2022-12-15T15:54:22.929Z,99291.25
2022-12-15T15:56:50.814Z,99289.94
2022-12-15T15:59:21.630Z,99288.06
2022-12-15T16:01:54.381Z,99289.47
2022-12-15T16:04:22.198Z,99289.47
2022-12-15T16:06:52.096Z,99285.13
2022-12-15T16:09:22.647Z,99292.91
2022-12-15T16:11:50.700Z,99284.16
2022-12-15T16:14:18.954Z,99281.72
2022-12-15T16:16:48.166Z,99277.72
2022-12-15T16:19:16.032Z,99275.00
2022-12-15T16:21:44.740Z,99278.06
2022-12-15T16:24:19.389Z,99274.81
2022-12-15T16:26:55.640Z,99276.94
2022-12-15T16:29:24.753Z,99288.50
2022-12-15T16:31:52.450Z,99267.09
2022-12-15T16:34:21.648Z,99266.69
2022-12-15T16:36:57.525Z,99264.19
2022-12-15T16:39:27.674Z,99263.94
2022-12-15T16:41:57.730Z,99259.16
2022-12-15T16:44:29.243Z,99246.75
2022-12-15T16:46:57.220Z,99254.44
2022-12-15T16:49:25.216Z,99258.84
2022-12-15T16:51:54.598Z,99254.00
2022-12-15T16:54:25.821Z,99254.44
2022-12-15T16:56:54.436Z,99253.38
2022-12-15T16:59:35.062Z,99257.44
2022-12-15T17:02:18.284Z,99251.50
2022-12-15T17:04:46.263Z,99252.97
2022-12-15T17:07:19.947Z,99261.91
2022-12-15T17:09:48.180Z,99262.06
2022-12-15T17:12:17.417Z,99262.22
2022-12-15T17:14:46.405Z,99269.19
2022-12-15T17:17:15.565Z,99274.44
2022-12-15T17:19:57.990Z,99270.88
2022-12-15T17:22:32.686Z,99273.75
2022-12-15T17:25:00.346Z,99280.28
2022-12-15T17:27:30.333Z,99283.84
2022-12-15T17:30:01.079Z,99287.75
2022-12-15T17:32:28.620Z,99279.09
2022-12-15T17:34:56.525Z,99281.38
2022-12-15T17:37:26.955Z,99265.09
2022-12-15T17:39:56.865Z,99272.69
2022-12-15T17:42:24.452Z,99274.75
2022-12-15T17:44:52.234Z,99279.47
2022-12-15T17:47:21.396Z,99276.31
2022-12-15T17:49:50.590Z,99274.09
2022-12-15T17:52:25.397Z,99278.47
2022-12-15T17:54:53.693Z,99281.28
2022-12-15T17:57:21.485Z,99269.59
2022-12-15T17:59:49.619Z,99263.13
2022-12-15T18:02:17.379Z,99268.00
2022-12-15T18:04:46.928Z,99263.91
2022-12-15T18:07:19.228Z,99258.28
2022-12-15T18:09:47.778Z,99257.50
2022-12-15T18:12:19.569Z,99254.81
2022-12-15T18:14:48.780Z,99259.84
2022-12-15T18:17:16.618Z,99258.91
2022-12-15T18:19:45.895Z,99251.88
2022-12-15T18:22:15.788Z,99242.16
2022-12-15T18:24:43.573Z,99245.22
2022-12-15T18:27:21.474Z,99248.53
2022-12-15T18:29:49.654Z,99238.34
2022-12-15T18:32:20.340Z,99241.91
2022-12-15T18:34:49.927Z,99235.97
2022-12-15T18:37:18.578Z,99232.47
2022-12-15T18:39:46.516Z,99231.91
2022-12-15T18:42:16.310Z,99233.78
2022-12-15T18:44:48.436Z,99234.19
2022-12-15T18:47:17.591Z,99237.81
2022-12-15T18:49:45.752Z,99248.94
2022-12-15T18:52:18.578Z,99247.09
2022-12-15T18:54:47.476Z,99232.31
2022-12-15T18:57:27.415Z,99237.22
2022-12-15T18:59:58.343Z,99233.59
2022-12-15T19:02:26.116Z,99229.09
2022-12-15T19:04:53.996Z,99234.25
2022-12-15T19:07:23.157Z,99231.16
2022-12-15T19:09:51.172Z,99225.34
2022-12-15T19:12:19.110Z,99233.66
2022-12-15T19:14:48.993Z,99229.94
2022-12-15T19:17:36.870Z,99225.34
2022-12-15T19:20:38.600Z,99222.53
2022-12-15T19:23:08.191Z,99216.28
2022-12-15T19:25:36.514Z,99216.28
2022-12-15T19:28:04.377Z,99220.53
2022-12-15T19:30:38.633Z,99201.78
2022-12-15T19:33:11.155Z,99204.63
2022-12-15T19:35:41.187Z,99209.22
2022-12-15T19:38:19.896Z,99201.25
2022-12-15T19:40:48.481Z,99202.13
2022-12-15T19:43:17.680Z,99208.34
2022-12-15T19:45:45.607Z,99202.19
2022-12-15T19:48:14.996Z,99202.97
2022-12-15T19:50:44.689Z,99200.34
2022-12-15T19:53:24.002Z,99195.09
2022-12-15T19:55:55.189Z,99196.38
2022-12-15T19:58:28.496Z,99193.97
2022-12-15T20:00:57.993Z,99188.25
2022-12-15T20:03:27.746Z,99185.28
2022-12-15T20:05:56.996Z,99180.88
2022-12-15T20:08:28.600Z,99181.78
2022-12-15T20:10:57.194Z,99170.69
2022-12-15T20:13:26.302Z,99154.22
2022-12-15T20:15:54.545Z,99163.78
2022-12-15T20:18:22.186Z,99163.03
2022-12-15T20:20:51.932Z,99149.38
2022-12-15T20:23:21.971Z,99140.41
2022-12-15T20:25:51.270Z,99148.13
2022-12-15T20:28:22.747Z,99144.41
2022-12-15T20:30:50.973Z,99151.31
2022-12-15T20:33:19.253Z,99147.50
2022-12-15T20:35:49.007Z,99155.50
2022-12-15T20:38:20.891Z,99159.31
2022-12-15T20:40:48.782Z,99152.75
2022-12-15T20:43:20.462Z,99157.38
2022-12-15T20:45:53.313Z,99151.78
2022-12-15T20:48:25.770Z,99161.22
2022-12-15T20:50:53.737Z,99155.16
2022-12-15T20:53:23.854Z,99158.72
2022-12-15T20:55:54.114Z,99162.13
2022-12-15T20:58:27.051Z,99161.34
2022-12-15T21:00:57.764Z,99157.22
2022-12-15T21:03:27.459Z,99160.91
2022-12-15T21:05:57.146Z,99175.16
2022-12-15T21:08:28.373Z,99169.28
2022-12-15T21:11:01.488Z,99165.78
2022-12-15T21:13:33.169Z,99171.91
2022-12-15T21:16:02.360Z,99170.44
2022-12-15T21:21:25.309Z,99162.81
2022-12-15T21:23:54.711Z,99174.97
2022-12-15T21:26:24.598Z,99159.50
2022-12-15T21:28:57.311Z,99163.09
2022-12-15T21:31:26.504Z,99164.06
2022-12-15T21:33:54.860Z,99161.56
2022-12-15T21:36:24.486Z,99178.31
2022-12-15T21:38:53.569Z,99183.34
2022-12-15T21:41:24.437Z,99193.81
2022-12-15T21:44:00.645Z,99192.88
2022-12-15T21:46:29.322Z,99186.56
2022-12-15T21:49:17.514Z,99188.13
2022-12-15T21:51:47.724Z,99195.19
2022-12-15T21:54:19.562Z,99190.13
2022-12-15T21:56:48.454Z,99190.69
2022-12-15T21:59:19.283Z,99189.44
2022-12-15T22:01:47.385Z,99194.94
2022-12-15T22:04:19.874Z,99193.22
2022-12-15T22:06:50.595Z,99205.59
2022-12-15T22:09:18.918Z,99209.44
2022-12-15T22:11:50.705Z,99194.75
2022-12-15T22:14:27.406Z,99205.03
2022-12-15T22:16:55.570Z,99203.72
2022-12-15T22:19:24.084Z,99204.69
2022-12-15T22:21:55.548Z,99203.63
2022-12-15T22:24:23.185Z,99198.31
2022-12-15T22:26:51.134Z,99205.22
2022-12-15T22:29:22.138Z,99209.03
2022-12-15T22:31:50.660Z,99213.91
2022-12-15T22:34:21.565Z,99211.31
2022-12-15T22:36:49.974Z,99210.56
2022-12-15T22:39:18.871Z,99208.78
2022-12-15T22:41:49.864Z,99212.00
2022-12-15T22:44:20.704Z,99206.56
2022-12-15T22:46:50.934Z,99207.78
2022-12-15T22:49:21.204Z,99206.47
2022-12-15T22:51:49.106Z,99209.88
2022-12-15T22:54:23.129Z,99201.63
2022-12-15T22:56:54.828Z,99199.84
2022-12-15T22:59:28.597Z,99195.78
2022-12-15T23:01:57.800Z,99191.59
2022-12-15T23:04:26.170Z,99198.06
2022-12-15T23:06:53.840Z,99189.63
2022-12-15T23:09:22.547Z,99191.59
2022-12-15T23:11:49.167Z,99191.72
2022-12-15T23:14:18.632Z,99190.59
2022-12-15T23:16:46.452Z,99188.97
2022-12-15T23:19:23.796Z,99182.41
2022-12-15T23:21:51.772Z,99187.13
2022-12-15T23:24:19.963Z,99189.22
2022-12-15T23:26:47.513Z,99189.50
2022-12-15T23:29:15.192Z,99186.28
2022-12-15T23:31:43.146Z,99183.94
2022-12-15T23:34:11.374Z,99188.22
2022-12-15T23:36:40.375Z,99182.06
2022-12-15T23:39:07.905Z,99185.66
2022-12-15T23:41:36.181Z,99188.47
2022-12-15T23:44:04.002Z,99177.38
2022-12-15T23:46:31.662Z,99183.44
2022-12-15T23:48:59.806Z,99177.78
2022-12-15T23:51:27.417Z,99182.81
2022-12-15T23:53:57.607Z,99175.50
2022-12-15T23:56:25.563Z,99189.31
2022-12-15T23:58:55.760Z,99180.03
